Bonaventure, Florida
Current Conditions -  °F | °C
As of 5:53 AM on Friday 24 Oct 2014 (Local Time) from KHWO Reporting Station
Overcast Overcast  
Wind Chill: 78°   Ceiling: 4500
Heat Index: 80°   Visibility: 10mi
Dew Point: 69°   Wind: 18mph
Humidity: 74%   Direction: 50°NE
Pressure: 29.85"   Gusts: 24mph
Location:  26.097°N, 80.3968°W
Report Text: KHWO 240953Z AUTO 05016G21KT 10SM FEW030 SCT037 OVC045 26/21 A2985 RMK AO2 RAB13E37 SLP108 P0000 T02560206
Loading
Personal Weather Stations






























Interactive Weather Map
Tropical Storm Tracking
New forecast layout! Learn more

10-Day Weather Forecast

Advertisements
Track Severe Weather on mobile